createdAt,value
2023-02-27T00:00:18.030Z,14.72
2023-02-27T00:02:46.820Z,14.71
2023-02-27T00:05:14.988Z,14.74
2023-02-27T00:07:42.322Z,14.62
2023-02-27T00:10:12.959Z,14.74
2023-02-27T00:12:42.143Z,14.73
2023-02-27T00:15:11.904Z,14.72
2023-02-27T00:17:38.908Z,14.71
2023-02-27T00:20:08.022Z,14.87
2023-02-27T00:22:35.191Z,14.80
2023-02-27T00:25:02.150Z,14.87
2023-02-27T00:27:29.342Z,14.76
2023-02-27T00:29:56.838Z,14.75
2023-02-27T00:32:24.211Z,14.87
2023-02-27T00:34:51.225Z,14.88
2023-02-27T00:37:18.514Z,14.94
2023-02-27T00:39:46.373Z,14.75
2023-02-27T00:42:13.513Z,14.77
2023-02-27T00:44:40.887Z,14.88
2023-02-27T00:47:08.213Z,14.90
2023-02-27T00:49:35.475Z,14.71
2023-02-27T00:52:02.447Z,14.63
2023-02-27T00:54:29.244Z,14.51
2023-02-27T00:56:56.042Z,14.38
2023-02-27T00:59:23.108Z,14.37
2023-02-27T01:01:49.860Z,14.40
2023-02-27T01:04:16.702Z,14.26
2023-02-27T01:06:46.210Z,14.21
2023-02-27T01:09:12.983Z,14.21
2023-02-27T01:11:40.022Z,14.27
2023-02-27T01:14:08.753Z,14.40
2023-02-27T01:16:36.356Z,14.43
2023-02-27T01:19:03.685Z,14.42
2023-02-27T01:21:30.531Z,14.43
2023-02-27T01:23:57.565Z,14.48
2023-02-27T01:26:24.460Z,14.55
2023-02-27T01:28:51.403Z,14.68
2023-02-27T01:31:19.107Z,14.52
2023-02-27T01:33:46.901Z,14.24
2023-02-27T01:36:13.802Z,14.16
2023-02-27T01:38:40.837Z,13.98
2023-02-27T01:41:07.879Z,13.85
2023-02-27T01:43:53.671Z,13.91
2023-02-27T01:46:20.488Z,13.82
2023-02-27T01:48:48.120Z,13.74
2023-02-27T01:51:20.670Z,13.82
2023-02-27T01:53:52.787Z,13.55
2023-02-27T01:56:31.274Z,14.08
2023-02-27T01:59:06.859Z,14.04
2023-02-27T02:01:35.418Z,13.93
2023-02-27T02:04:25.983Z,13.90
2023-02-27T02:07:01.054Z,13.86
2023-02-27T02:09:30.683Z,14.03
2023-02-27T02:11:59.747Z,14.09
2023-02-27T02:14:26.707Z,14.06
2023-02-27T02:17:18.693Z,14.13
2023-02-27T02:19:48.424Z,14.13
2023-02-27T02:22:27.629Z,14.17
2023-02-27T02:25:16.395Z,14.25
2023-02-27T02:28:05.144Z,14.22
2023-02-27T02:30:49.806Z,14.10
2023-02-27T02:33:45.983Z,14.13
2023-02-27T02:36:24.978Z,14.28
2023-02-27T02:39:20.564Z,14.34
2023-02-27T02:42:01.130Z,14.35
2023-02-27T02:44:30.920Z,14.36
2023-02-27T02:47:16.422Z,14.32
2023-02-27T02:50:09.194Z,14.32
2023-02-27T02:52:52.856Z,14.39
2023-02-27T02:55:31.420Z,14.12
2023-02-27T02:58:13.109Z,14.40
2023-02-27T03:00:47.866Z,14.51
2023-02-27T03:03:22.912Z,14.50
2023-02-27T03:06:14.375Z,14.65
2023-02-27T03:08:49.449Z,14.57
2023-02-27T03:11:17.087Z,14.56
2023-02-27T03:14:03.812Z,14.47
2023-02-27T03:16:54.504Z,14.57
2023-02-27T03:19:30.253Z,14.59
2023-02-27T03:22:02.554Z,14.54
2023-02-27T03:24:42.776Z,14.41
2023-02-27T03:27:11.089Z,14.30
2023-02-27T03:29:57.947Z,14.37
2023-02-27T03:32:33.639Z,14.22
2023-02-27T03:35:01.176Z,14.21
2023-02-27T03:37:30.816Z,14.19
2023-02-27T03:40:15.031Z,14.09
2023-02-27T03:43:03.042Z,14.04
2023-02-27T03:45:41.788Z,14.01
2023-02-27T03:48:09.182Z,13.84
2023-02-27T03:50:38.255Z,13.71
2023-02-27T03:53:11.676Z,13.70
2023-02-27T03:55:44.437Z,13.73
2023-02-27T03:58:11.598Z,13.82
2023-02-27T04:00:38.683Z,13.77
2023-02-27T04:03:06.122Z,13.68
2023-02-27T04:05:33.831Z,13.74
2023-02-27T04:08:32.137Z,13.81
2023-02-27T04:11:17.413Z,13.74
2023-02-27T04:14:14.875Z,13.66
2023-02-27T04:17:35.467Z,13.57
2023-02-27T04:20:11.222Z,13.64
2023-02-27T04:22:49.643Z,13.53
2023-02-27T04:25:51.411Z,13.55
2023-02-27T04:28:50.785Z,13.50
2023-02-27T04:31:25.312Z,13.41
2023-02-27T04:33:58.744Z,13.32
2023-02-27T04:36:36.503Z,13.45
2023-02-27T04:39:09.179Z,13.31
2023-02-27T04:41:39.533Z,13.24
2023-02-27T04:44:12.098Z,13.07
2023-02-27T04:46:42.463Z,13.28
2023-02-27T04:49:14.822Z,13.29
2023-02-27T04:52:06.473Z,13.30
2023-02-27T04:55:03.372Z,13.28
2023-02-27T04:57:41.256Z,13.15
2023-02-27T05:00:12.705Z,13.13
2023-02-27T05:03:00.375Z,13.21
2023-02-27T05:05:31.841Z,13.23
2023-02-27T05:08:15.149Z,13.24
2023-02-27T05:11:11.217Z,13.36
2023-02-27T05:13:53.979Z,13.47
2023-02-27T05:16:33.574Z,13.28
2023-02-27T05:19:01.807Z,13.34
2023-02-27T05:21:39.187Z,13.49
2023-02-27T05:24:30.627Z,13.59
2023-02-27T05:27:15.588Z,13.62
2023-02-27T05:30:03.288Z,13.61
2023-02-27T05:32:43.201Z,13.53
2023-02-27T05:35:15.665Z,13.37
2023-02-27T05:37:48.609Z,13.55
2023-02-27T05:40:42.406Z,13.58
2023-02-27T05:43:25.528Z,13.46
2023-02-27T05:45:59.730Z,13.48
2023-02-27T05:48:33.412Z,13.46
2023-02-27T05:51:00.720Z,13.56
2023-02-27T05:53:33.819Z,13.49
2023-02-27T05:56:03.235Z,13.57
2023-02-27T05:58:43.656Z,13.62
2023-02-27T06:01:12.128Z,13.69
2023-02-27T06:03:41.158Z,13.71
2023-02-27T06:06:20.280Z,13.77
2023-02-27T06:08:47.088Z,13.67
2023-02-27T06:11:13.979Z,13.68
2023-02-27T06:13:42.182Z,13.75
2023-02-27T06:16:12.753Z,13.82
2023-02-27T06:18:39.522Z,13.78
2023-02-27T06:21:06.841Z,13.78
2023-02-27T06:23:33.645Z,13.72
2023-02-27T06:26:00.468Z,14.08
2023-02-27T06:28:27.596Z,14.36
2023-02-27T06:30:57.348Z,14.51
2023-02-27T06:33:26.121Z,14.52
2023-02-27T06:35:53.116Z,14.59
2023-02-27T06:38:20.040Z,14.70
2023-02-27T06:40:46.942Z,14.95
2023-02-27T06:43:14.884Z,14.95
2023-02-27T06:45:41.761Z,15.03
2023-02-27T06:48:08.931Z,15.02
2023-02-27T06:50:35.715Z,15.23
2023-02-27T06:53:02.372Z,15.47
2023-02-27T06:55:29.060Z,15.56
2023-02-27T06:57:55.842Z,15.62
2023-02-27T07:00:22.924Z,15.57
2023-02-27T07:02:49.856Z,15.68
2023-02-27T07:05:16.643Z,15.79
2023-02-27T07:07:43.569Z,15.69
2023-02-27T07:10:13.378Z,15.77
2023-02-27T07:12:40.620Z,15.79
2023-02-27T07:15:09.256Z,15.98
2023-02-27T07:17:36.064Z,16.08
2023-02-27T07:20:03.043Z,16.11
2023-02-27T07:22:29.925Z,16.31
2023-02-27T07:24:56.597Z,16.24
2023-02-27T07:27:23.390Z,16.37
2023-02-27T07:29:50.148Z,16.52
2023-02-27T07:32:16.961Z,16.58
2023-02-27T07:34:45.311Z,16.50
2023-02-27T07:37:12.020Z,16.57
2023-02-27T07:39:38.682Z,16.62
2023-02-27T07:42:05.771Z,16.63
2023-02-27T07:44:33.005Z,16.71
2023-02-27T07:46:59.743Z,17.03
2023-02-27T07:49:26.527Z,17.48
2023-02-27T07:51:53.322Z,17.64
2023-02-27T07:54:20.192Z,17.84
2023-02-27T07:56:46.901Z,17.94
2023-02-27T07:59:13.635Z,17.77
2023-02-27T08:01:40.406Z,17.63
2023-02-27T08:04:07.221Z,17.65
2023-02-27T08:06:33.939Z,18.03
2023-02-27T08:09:02.476Z,18.01
2023-02-27T08:11:29.533Z,17.95
2023-02-27T08:14:00.611Z,17.95
2023-02-27T08:16:28.864Z,18.33
2023-02-27T08:18:55.979Z,18.93
2023-02-27T08:21:23.026Z,18.48
2023-02-27T08:23:49.697Z,18.63
2023-02-27T08:26:16.480Z,18.70
2023-02-27T08:28:43.220Z,18.91
2023-02-27T08:31:09.995Z,18.79
2023-02-27T08:33:36.780Z,19.16
2023-02-27T08:36:03.841Z,18.65
2023-02-27T08:38:30.545Z,19.10
2023-02-27T08:40:57.279Z,19.48
2023-02-27T08:43:24.725Z,18.69
2023-02-27T08:45:51.718Z,18.78
2023-02-27T08:48:18.703Z,19.02
2023-02-27T08:50:46.604Z,19.40
2023-02-27T08:53:13.613Z,19.42
2023-02-27T08:55:40.425Z,18.98
2023-02-27T08:58:07.242Z,18.59
2023-02-27T09:00:33.906Z,18.88
2023-02-27T09:03:01.453Z,19.33
2023-02-27T09:05:29.153Z,19.71
2023-02-27T09:07:55.942Z,19.75
2023-02-27T09:10:23.513Z,20.07
2023-02-27T09:12:50.270Z,20.27
2023-02-27T09:15:17.141Z,20.24
2023-02-27T09:17:43.899Z,20.33
2023-02-27T09:20:11.446Z,20.26
2023-02-27T09:22:39.226Z,19.88
2023-02-27T09:25:06.632Z,19.54
2023-02-27T09:27:33.889Z,19.30
2023-02-27T09:30:00.751Z,19.32
2023-02-27T09:32:28.157Z,19.35
2023-02-27T09:34:55.801Z,19.29
2023-02-27T09:37:25.232Z,19.59
2023-02-27T09:39:52.174Z,19.66
2023-02-27T09:42:26.281Z,19.94
2023-02-27T09:44:57.640Z,20.07
2023-02-27T09:47:48.179Z,20.40
2023-02-27T09:50:38.050Z,20.09
2023-02-27T09:53:15.018Z,20.35
2023-02-27T09:55:44.839Z,20.56
2023-02-27T09:58:44.130Z,19.91
2023-02-27T10:01:19.257Z,20.18
2023-02-27T10:03:55.085Z,20.38
2023-02-27T10:06:24.875Z,20.70
2023-02-27T10:08:51.519Z,20.65
2023-02-27T10:11:30.980Z,19.93
2023-02-27T10:14:47.834Z,19.79
2023-02-27T10:17:22.746Z,20.15
2023-02-27T10:19:52.733Z,20.16
2023-02-27T10:22:30.211Z,20.08
2023-02-27T10:25:03.171Z,19.87
2023-02-27T10:27:31.243Z,20.17
2023-02-27T10:30:29.285Z,20.21
2023-02-27T10:33:11.789Z,20.49
2023-02-27T10:35:42.421Z,20.43
2023-02-27T10:38:17.896Z,20.02
2023-02-27T10:40:46.408Z,19.80
2023-02-27T10:43:19.328Z,20.21
2023-02-27T10:45:46.120Z,20.38
2023-02-27T10:48:13.398Z,20.06
2023-02-27T10:50:52.380Z,20.12
2023-02-27T10:53:25.189Z,20.16
2023-02-27T10:56:02.768Z,20.38
2023-02-27T10:58:35.124Z,20.44
2023-02-27T11:01:08.203Z,20.78
2023-02-27T11:03:40.933Z,20.86
2023-02-27T11:06:26.842Z,21.07
2023-02-27T11:09:32.629Z,20.84
2023-02-27T11:12:24.427Z,20.49
2023-02-27T11:14:57.825Z,20.68
2023-02-27T11:17:29.051Z,21.04
2023-02-27T11:19:58.150Z,21.18
2023-02-27T11:22:28.733Z,21.64
2023-02-27T11:25:20.604Z,21.36
2023-02-27T11:27:48.077Z,21.17
2023-02-27T11:30:31.954Z,21.26
2023-02-27T11:33:01.475Z,20.73
2023-02-27T11:35:37.427Z,21.03
2023-02-27T11:38:16.808Z,21.14
2023-02-27T11:40:51.560Z,20.79
2023-02-27T11:43:22.969Z,20.76
2023-02-27T11:46:18.389Z,20.83
2023-02-27T11:48:52.169Z,21.35
2023-02-27T11:51:21.578Z,21.73
2023-02-27T11:53:54.359Z,21.86
2023-02-27T11:56:44.205Z,21.77
2023-02-27T11:59:14.940Z,21.90
2023-02-27T12:01:51.167Z,22.06
2023-02-27T12:04:27.544Z,21.64
2023-02-27T12:07:11.352Z,21.39
2023-02-27T12:10:03.148Z,21.39
2023-02-27T12:12:50.969Z,21.08
2023-02-27T12:15:20.250Z,20.80
2023-02-27T12:18:03.858Z,20.80
2023-02-27T12:20:45.322Z,20.74
2023-02-27T12:23:43.954Z,21.01
2023-02-27T12:26:30.230Z,21.43
2023-02-27T12:29:03.752Z,21.30
2023-02-27T12:31:36.056Z,21.09
2023-02-27T12:34:05.397Z,21.09
2023-02-27T12:36:33.024Z,21.14
2023-02-27T12:38:59.846Z,20.90
2023-02-27T12:41:37.217Z,20.57
2023-02-27T12:44:29.556Z,20.57
2023-02-27T12:47:14.454Z,20.66
2023-02-27T12:49:51.677Z,20.85
2023-02-27T12:52:24.168Z,20.95
2023-02-27T12:55:19.147Z,20.47
2023-02-27T12:58:22.919Z,20.77
2023-02-27T13:01:04.274Z,20.76
2023-02-27T13:03:52.319Z,20.74
2023-02-27T13:06:43.387Z,20.59
2023-02-27T13:09:29.417Z,20.45
2023-02-27T13:12:08.750Z,20.34
2023-02-27T13:14:55.686Z,20.24
2023-02-27T13:17:46.784Z,20.26
2023-02-27T13:20:22.750Z,20.39
2023-02-27T13:23:14.258Z,20.46
2023-02-27T13:25:46.328Z,20.62
2023-02-27T13:28:20.154Z,20.56
2023-02-27T13:31:06.843Z,20.71
2023-02-27T13:33:44.205Z,20.96
2023-02-27T13:36:47.577Z,20.85
2023-02-27T13:39:35.984Z,20.84
2023-02-27T13:42:03.264Z,20.78
2023-02-27T13:44:36.060Z,20.88
2023-02-27T13:47:30.848Z,20.74
2023-02-27T13:50:02.676Z,20.54
2023-02-27T13:52:39.195Z,20.72
2023-02-27T13:55:25.326Z,20.40
2023-02-27T13:57:57.254Z,20.14
2023-02-27T14:00:28.697Z,20.17
2023-02-27T14:03:00.573Z,20.22
2023-02-27T14:05:35.248Z,20.13
2023-02-27T14:08:21.796Z,20.14
2023-02-27T14:11:20.908Z,19.85
2023-02-27T14:13:50.669Z,20.04
2023-02-27T14:16:40.049Z,20.04
2023-02-27T14:19:16.075Z,20.11
2023-02-27T14:22:12.186Z,20.13
2023-02-27T14:24:49.752Z,20.17
2023-02-27T14:27:30.726Z,20.16
2023-02-27T14:30:02.913Z,20.17
2023-02-27T14:32:33.974Z,20.16
2023-02-27T14:35:04.619Z,19.89
2023-02-27T14:37:32.165Z,19.84
2023-02-27T14:40:03.193Z,20.00
2023-02-27T14:43:05.367Z,20.08
2023-02-27T14:45:32.301Z,19.86
2023-02-27T14:47:59.347Z,19.61
2023-02-27T14:50:37.448Z,19.84
2023-02-27T14:53:06.140Z,19.88
2023-02-27T14:55:38.011Z,19.73
2023-02-27T14:58:07.736Z,19.66
2023-02-27T15:00:58.297Z,19.61
2023-02-27T15:03:26.704Z,19.37
2023-02-27T15:05:57.724Z,19.26
2023-02-27T15:08:29.025Z,19.23
2023-02-27T15:10:58.827Z,19.20
2023-02-27T15:13:29.985Z,18.99
2023-02-27T15:16:38.823Z,19.05
2023-02-27T15:19:16.498Z,18.89
2023-02-27T15:21:46.842Z,18.74
2023-02-27T15:24:24.716Z,18.57
2023-02-27T15:26:56.175Z,18.42
2023-02-27T15:29:27.065Z,18.45
2023-02-27T15:31:54.452Z,18.43
2023-02-27T15:34:21.539Z,18.41
2023-02-27T15:37:01.114Z,18.39
2023-02-27T15:39:31.776Z,18.14
2023-02-27T15:42:03.991Z,18.21
2023-02-27T15:44:37.439Z,18.13
2023-02-27T15:47:05.174Z,17.98
2023-02-27T15:49:31.956Z,17.93
2023-02-27T15:52:12.571Z,17.96
2023-02-27T15:55:08.809Z,17.69
2023-02-27T15:57:37.996Z,17.70
2023-02-27T16:00:07.657Z,17.69
2023-02-27T16:02:43.453Z,17.83
2023-02-27T16:05:22.370Z,17.67
2023-02-27T16:07:50.844Z,17.78
2023-02-27T16:10:39.578Z,17.72
2023-02-27T16:13:37.335Z,17.70
2023-02-27T16:16:37.823Z,17.21
2023-02-27T16:19:34.192Z,15.87
2023-02-27T16:22:18.699Z,15.22
2023-02-27T16:24:46.081Z,14.98
2023-02-27T16:27:28.723Z,14.89
2023-02-27T16:30:02.588Z,14.65
2023-02-27T16:32:35.266Z,14.58
2023-02-27T16:35:07.879Z,14.52
2023-02-27T16:37:38.077Z,14.49
2023-02-27T16:40:17.323Z,14.53
2023-02-27T16:42:45.516Z,14.41
2023-02-27T16:45:23.564Z,14.42
2023-02-27T16:47:53.486Z,14.58
2023-02-27T16:50:33.898Z,14.34
2023-02-27T16:53:01.100Z,14.25
2023-02-27T16:55:27.992Z,14.41
2023-02-27T16:57:54.929Z,14.59
2023-02-27T17:00:24.913Z,14.08
2023-02-27T17:02:51.956Z,13.89
2023-02-27T17:05:19.652Z,13.71
2023-02-27T17:07:46.642Z,13.69
2023-02-27T17:10:17.630Z,13.66
2023-02-27T17:12:44.382Z,13.26
2023-02-27T17:15:11.363Z,13.51
2023-02-27T17:17:38.533Z,13.29
2023-02-27T17:20:08.928Z,13.20
2023-02-27T17:22:40.459Z,13.27
2023-02-27T17:25:08.659Z,13.32
2023-02-27T17:27:35.664Z,13.35
2023-02-27T17:30:02.415Z,13.13
2023-02-27T17:32:29.295Z,13.16
2023-02-27T17:34:56.343Z,13.08
2023-02-27T17:37:23.539Z,13.17
2023-02-27T17:39:50.417Z,13.04
2023-02-27T17:42:18.791Z,13.02
2023-02-27T17:44:48.827Z,12.93
2023-02-27T17:47:15.698Z,12.91
2023-02-27T17:49:42.966Z,12.90
2023-02-27T17:52:09.812Z,12.82
2023-02-27T17:54:36.721Z,12.71
2023-02-27T17:57:06.870Z,12.66
2023-02-27T17:59:33.890Z,12.64
2023-02-27T18:02:00.593Z,12.73
2023-02-27T18:04:27.284Z,12.55
2023-02-27T18:06:54.469Z,12.55
2023-02-27T18:09:21.185Z,12.53
2023-02-27T18:11:48.164Z,12.46
2023-02-27T18:14:14.808Z,12.47
2023-02-27T18:16:42.664Z,12.52
2023-02-27T18:19:09.362Z,12.43
2023-02-27T18:21:36.435Z,12.47
2023-02-27T18:24:03.211Z,12.46
2023-02-27T18:26:33.057Z,12.44
2023-02-27T18:29:09.368Z,12.38
2023-02-27T18:31:42.849Z,12.45
2023-02-27T18:34:10.977Z,12.47
2023-02-27T18:36:38.223Z,12.43
2023-02-27T18:39:06.129Z,12.47
2023-02-27T18:41:33.293Z,12.28
2023-02-27T18:44:00.143Z,12.38
2023-02-27T18:46:28.082Z,12.35
2023-02-27T18:48:55.356Z,12.28
2023-02-27T18:51:22.105Z,12.47
2023-02-27T18:53:50.369Z,12.28
2023-02-27T18:56:20.054Z,12.27
2023-02-27T18:58:47.077Z,12.25
2023-02-27T19:01:21.359Z,12.23
2023-02-27T19:03:48.533Z,12.17
2023-02-27T19:06:15.162Z,12.24
2023-02-27T19:08:42.121Z,12.25
2023-02-27T19:11:09.255Z,12.11
2023-02-27T19:13:36.005Z,12.09
2023-02-27T19:16:06.664Z,12.09
2023-02-27T19:18:33.287Z,12.14
2023-02-27T19:21:05.019Z,12.18
2023-02-27T19:23:32.148Z,12.13
2023-02-27T19:26:00.127Z,12.03
2023-02-27T19:28:26.980Z,11.96
2023-02-27T19:30:53.787Z,12.00
2023-02-27T19:33:20.632Z,11.99
2023-02-27T19:35:47.339Z,12.10
2023-02-27T19:38:14.174Z,11.91
2023-02-27T19:40:40.913Z,11.91
2023-02-27T19:43:07.663Z,11.77
2023-02-27T19:45:34.764Z,11.73
2023-02-27T19:48:01.928Z,11.71
2023-02-27T19:50:30.330Z,11.65
2023-02-27T19:52:57.041Z,11.62
2023-02-27T19:55:24.218Z,11.64
2023-02-27T19:57:50.889Z,11.67
2023-02-27T20:00:18.578Z,11.52
2023-02-27T20:02:48.485Z,11.60
2023-02-27T20:05:15.139Z,11.58
2023-02-27T20:07:42.570Z,11.62
2023-02-27T20:10:10.610Z,11.70
2023-02-27T20:12:37.279Z,11.77
2023-02-27T20:15:08.886Z,11.73
2023-02-27T20:17:35.727Z,11.72
2023-02-27T20:20:04.953Z,11.71
2023-02-27T20:22:35.744Z,11.77
2023-02-27T20:25:02.401Z,11.79
2023-02-27T20:27:29.216Z,11.88
2023-02-27T20:29:57.486Z,11.86
2023-02-27T20:32:25.249Z,11.88
2023-02-27T20:34:55.674Z,11.97
2023-02-27T20:37:22.900Z,11.97
2023-02-27T20:39:50.478Z,11.81
2023-02-27T20:42:17.600Z,11.83
2023-02-27T20:44:44.453Z,11.84
2023-02-27T20:47:11.148Z,11.77
2023-02-27T20:49:38.813Z,11.88
2023-02-27T20:52:05.505Z,11.87
2023-02-27T20:54:32.716Z,11.86
2023-02-27T20:56:59.727Z,11.84
2023-02-27T20:59:27.145Z,11.81
2023-02-27T21:01:54.797Z,11.90
2023-02-27T21:04:24.893Z,11.82
2023-02-27T21:06:52.532Z,11.72
2023-02-27T21:09:19.870Z,11.67
2023-02-27T21:11:46.747Z,11.52
2023-02-27T21:14:13.569Z,10.99
2023-02-27T21:16:40.763Z,11.13
2023-02-27T21:19:07.884Z,11.10
2023-02-27T21:21:35.830Z,10.99
2023-02-27T21:24:03.022Z,10.83
2023-02-27T21:26:36.602Z,10.76
2023-02-27T21:29:07.502Z,10.61
2023-02-27T21:31:35.655Z,10.63
2023-02-27T21:34:04.656Z,10.57
2023-02-27T21:36:34.636Z,10.36
2023-02-27T21:39:05.221Z,10.28
2023-02-27T21:41:32.202Z,10.17
2023-02-27T21:44:03.519Z,10.17
2023-02-27T21:46:31.019Z,9.94
2023-02-27T21:48:58.417Z,9.92
2023-02-27T21:51:38.724Z,9.82
2023-02-27T21:54:06.881Z,9.97
2023-02-27T21:56:33.833Z,9.85
2023-02-27T21:59:02.185Z,9.87
2023-02-27T22:01:30.245Z,9.87
2023-02-27T22:03:57.575Z,9.97
2023-02-27T22:06:27.357Z,9.85
2023-02-27T22:08:59.632Z,9.60
2023-02-27T22:11:28.167Z,9.50
2023-02-27T22:13:55.132Z,9.28
2023-02-27T22:16:22.291Z,9.22
2023-02-27T22:18:49.155Z,9.17
2023-02-27T22:21:22.774Z,9.31
2023-02-27T22:23:49.730Z,9.17
2023-02-27T22:26:20.243Z,9.10
2023-02-27T22:28:47.501Z,9.08
2023-02-27T22:31:21.391Z,9.12
2023-02-27T22:33:51.092Z,9.18
2023-02-27T22:36:26.448Z,9.09
2023-02-27T22:38:53.730Z,8.98
2023-02-27T22:41:29.340Z,8.95
2023-02-27T22:43:58.736Z,8.47
2023-02-27T22:46:25.448Z,8.89
2023-02-27T22:49:04.692Z,8.84
2023-02-27T22:51:32.525Z,8.60
2023-02-27T22:54:01.760Z,8.77
2023-02-27T22:56:29.244Z,8.61
2023-02-27T22:58:56.688Z,8.53
2023-02-27T23:01:28.941Z,8.40
2023-02-27T23:04:01.023Z,8.41
2023-02-27T23:06:33.724Z,8.35
2023-02-27T23:09:01.297Z,8.38
2023-02-27T23:11:28.523Z,8.33
2023-02-27T23:13:55.604Z,8.32
2023-02-27T23:16:22.468Z,8.32
2023-02-27T23:18:52.051Z,8.35
2023-02-27T23:21:21.653Z,8.27
2023-02-27T23:23:48.345Z,8.35
2023-02-27T23:26:15.301Z,8.35
2023-02-27T23:28:43.045Z,8.38
2023-02-27T23:31:10.026Z,8.26
2023-02-27T23:33:36.912Z,8.19
2023-02-27T23:36:04.484Z,8.15
2023-02-27T23:38:32.100Z,8.06
2023-02-27T23:41:04.283Z,8.10
2023-02-27T23:43:30.961Z,8.06
2023-02-27T23:45:57.806Z,8.13
2023-02-27T23:48:24.602Z,8.11
2023-02-27T23:50:51.444Z,7.94
2023-02-27T23:53:19.376Z,8.05
2023-02-27T23:55:46.085Z,8.10
2023-02-27T23:58:12.773Z,8.11
